Time;durP1;ratioP1;P1;durP2;ratioP2;P2;SDS_P1;SDS_P2;PMS_P1;PMS_P2;Temp;Humidity;BMP_temperature;BMP_pressure;BME280_temperature;BME280_humidity;BME280_pressure;Samples;Min_cycle;Max_cycle;Signal;HPM_P1;HPM_P2
2022/09/02 00:01:25;;;;;;;1.33;0.80;;;20.10;99.90;;;;;;20631707;28;20210;-73
2022/09/02 00:11:29;;;;;;;1.33;0.90;;;20.10;99.90;;;;;;20614409;28;20213;-74
2022/09/02 00:21:34;;;;;;;1.90;0.93;;;;;;;;;;20626342;23;20234;-70
2022/09/02 00:31:36;;;;;;;1.57;0.97;;;19.90;99.90;;;;;;20660941;28;20630;-70
2022/09/02 00:41:39;;;;;;;1.70;0.90;;;;;;;;;;20642502;28;20223;-69
2022/09/02 00:51:45;;;;;;;1.93;1.30;;;;;;;;;;20641891;28;20265;-69
2022/09/02 01:01:47;;;;;;;1.50;0.90;;;;;;;;;;20641941;28;20217;-69
2022/09/02 01:11:53;;;;;;;1.47;1.00;;;19.40;99.90;;;;;;20641264;28;20268;-69
2022/09/02 01:21:57;;;;;;;1.73;1.10;;;;;;;;;;20657981;28;20206;-69
2022/09/02 01:31:58;;;;;;;1.97;1.20;;;;;;;;;;20667789;28;20622;-69
2022/09/02 01:42:01;;;;;;;1.60;1.00;;;;;;;;;;20655900;28;20271;-69
2022/09/02 01:52:03;;;;;;;1.97;1.00;;;19.20;99.90;;;;;;20655772;28;20213;-69
2022/09/02 02:02:06;;;;;;;2.30;0.83;;;19.10;99.90;;;;;;20654567;28;20253;-69
2022/09/02 02:12:08;;;;;;;1.70;0.90;;;19.00;99.90;;;;;;20653797;28;20573;-69
2022/09/02 02:22:12;;;;;;;1.80;1.00;;;;;;;;;;20670636;28;20217;-69
2022/09/02 02:32:17;;;;;;;2.20;1.00;;;;;;;;;;20670259;28;20229;-69
2022/09/02 02:42:19;;;;;;;1.30;0.90;;;;;;;;;;20634796;28;20251;-69
2022/09/02 02:52:21;;;;;;;1.57;1.00;;;;;;;;;;20650946;28;20538;-69
2022/09/02 03:02:23;;;;;;;2.63;1.20;;;;;;;;;;20667178;28;20243;-69
2022/09/02 03:12:27;;;;;;;1.67;0.87;;;;;;;;;;20667219;28;20197;-69
2022/09/02 03:22:28;;;;;;;1.57;1.03;;;;;;;;;;20665818;28;20296;-69
2022/09/02 03:32:30;;;;;;;1.40;0.80;;;;;;;;;;20631339;28;20214;-69
2022/09/02 03:42:32;;;;;;;2.83;1.30;;;;;;;;;;20630811;28;20225;-69
2022/09/02 03:52:35;;;;;;;1.60;1.10;;;;;;;;;;20645370;28;20213;-69
2022/09/02 04:02:38;;;;;;;1.70;1.20;;;;;;;;;;20629994;28;20213;-69
2022/09/02 04:12:39;;;;;;;1.97;1.10;;;;;;;;;;20644469;28;20576;-68
2022/09/02 04:22:41;;;;;;;2.83;1.37;;;;;;;;;;20643686;28;20229;-69
2022/09/02 04:32:44;;;;;;;1.70;1.00;;;;;;;;;;20643489;28;20255;-69
2022/09/02 04:42:46;;;;;;;1.40;1.00;;;;;;;;;;20611012;28;20220;-69
2022/09/02 04:52:48;;;;;;;1.90;1.40;;;;;;;;;;20642517;28;20270;-70
2022/09/02 05:02:52;;;;;;;1.97;1.37;;;17.70;99.90;;;;;;20641093;28;20221;-69
2022/09/02 05:12:54;;;;;;;1.73;1.30;;;;;;;;;;20625251;28;20211;-70
2022/09/02 05:22:56;;;;;;;2.17;1.37;;;;;;;;;;20640613;28;20217;-70
2022/09/02 05:32:58;;;;;;;1.67;1.23;;;;;;;;;;20640697;28;20274;-70
2022/09/02 05:43:01;;;;;;;1.80;1.30;;;;;;;;;;20624335;28;20227;-70
2022/09/02 05:53:03;;;;;;;3.50;1.50;;;;;;;;;;20639410;28;20201;-70
2022/09/02 06:03:05;;;;;;;6.90;1.77;;;;;;;;;;20639042;28;20220;-70
2022/09/02 06:13:10;;;;;;;3.20;1.23;;;;;;;;;;20624559;28;20240;-70
2022/09/02 06:23:16;;;;;;;2.47;1.43;;;;;;;;;;20649971;23;20279;-72
2022/09/02 06:33:20;;;;;;;2.67;1.17;;;;;;;;;;20668078;28;20209;-72
2022/09/02 06:43:23;;;;;;;3.77;1.40;;;;;;;;;;20651368;28;20577;-72
2022/09/02 06:53:40;;;;;;;1.53;0.93;;;;;;;;;;20636151;28;20221;-72
2022/09/02 07:14:03;;;;;;;1.20;0.77;;;19.00;99.90;;;;;;20648534;28;20209;-72
2022/09/02 07:24:05;;;;;;;1.47;0.90;;;;;;;;;;20631252;28;20217;-72
2022/09/02 07:34:08;;;;;;;2.27;1.20;;;;;;;;;;20631156;28;20279;-72
2022/09/02 07:44:12;;;;;;;1.77;0.80;;;;;;;;;;20645487;28;20263;-72
2022/09/02 07:54:16;;;;;;;1.10;0.70;;;;;;;;;;20629972;28;20622;-72
2022/09/02 08:04:19;;;;;;;1.63;0.90;;;;;;;;;;20645052;28;20233;-72
2022/09/02 08:14:24;;;;;;;1.73;1.07;;;;;;;;;;20644547;28;20205;-73
2022/09/02 08:24:30;;;;;;;3.17;0.90;;;20.50;99.90;;;;;;20660831;28;20271;-73
2022/09/02 08:34:32;;;;;;;0.70;0.50;;;;;;;;;;20660987;28;20689;-73
2022/09/02 08:44:36;;;;;;;2.70;1.00;;;20.70;99.90;;;;;;20658947;28;20223;-73
2022/09/02 08:54:38;;;;;;;0.80;0.53;;;;;;;;;;20641612;28;20600;-73
2022/09/02 09:04:52;;;;;;;0.40;0.33;;;;;;;;;;20658486;28;20217;-73
2022/09/02 09:14:53;;;;;;;1.00;0.40;;;;;;;;;;20640379;28;20206;-72
2022/09/02 09:24:56;;;;;;;0.40;0.30;;;;;;;;;;20657657;28;20226;-73
2022/09/02 09:35:08;;;;;;;1.00;0.40;;;21.80;99.90;;;;;;20640661;28;20203;-73
2022/09/02 09:45:33;;;;;;;2.00;0.43;;;;;;;;;;20639197;28;20222;-73
2022/09/02 09:55:48;;;;;;;0.83;0.40;;;;;;;;;;20668781;28;20206;-73
2022/09/02 10:05:57;;;;;;;0.73;0.40;;;;;;;;;;20672013;28;20743;-72
2022/09/02 10:16:14;;;;;;;0.63;0.40;;;;;;;;;;20670600;28;20200;-72
2022/09/02 10:26:32;;;;;;;0.73;0.40;;;22.80;83.80;;;;;;20669547;28;20244;-72
2022/09/02 10:36:46;;;;;;;0.45;0.35;;;23.10;89.20;;;;;;20669407;28;20261;-72
2022/09/02 10:46:54;;;;;;;1.23;0.40;;;;;;;;;;20650758;28;20270;-72
2022/09/02 10:57:00;;;;;;;0.55;0.40;;;;;;;;;;20651368;28;20208;-72
2022/09/02 11:07:02;;;;;;;1.65;0.38;;;;;;;;;;20667067;28;20217;-72
2022/09/02 11:17:10;;;;;;;1.50;0.93;;;;;;;;;;20632680;28;20217;-72
2022/09/02 11:27:38;;;;;;;0.60;0.30;;;;;;;;;;20648788;28;20367;-72
2022/09/02 11:37:48;;;;;;;0.90;0.50;;;24.50;79.40;;;;;;20646003;28;20220;-73
2022/09/02 11:47:50;;;;;;;0.47;0.45;;;;;;;;;;20663279;28;20213;-73
2022/09/02 11:57:53;;;;;;;0.50;0.30;;;;;;;;;;20644344;28;20562;-72
2022/09/02 12:07:56;;;;;;;0.65;0.40;;;;;;;;;;20644558;28;20244;-72
2022/09/02 12:17:58;;;;;;;0.55;0.40;;;;;;;;;;20659855;28;20207;-72
2022/09/02 12:28:24;;;;;;;1.40;0.45;;;26.30;66.10;;;;;;20673822;23;20244;-72
2022/09/02 12:38:30;;;;;;;0.40;0.30;;;26.00;68.60;;;;;;20643877;28;20203;-72
2022/09/02 12:48:43;;;;;;;0.28;0.28;;;25.70;76.90;;;;;;20643183;28;20258;-73
2022/09/02 12:58:54;;;;;;;0.43;0.20;;;25.70;78.20;;;;;;20659893;28;20824;-72
2022/09/02 13:09:20;;;;;;;1.13;0.30;;;25.80;64.90;;;;;;20642259;28;20219;-72
2022/09/02 13:20:19;;;;;;;0.40;0.30;;;25.70;76.10;;;;;;20658604;28;20207;-71
2022/09/02 13:30:39;;;;;;;3.90;0.57;;;;;;;;;;20633807;28;20288;-72
2022/09/02 13:40:43;;;;;;;0.40;0.22;;;;;;;;;;20674427;28;20234;-71
2022/09/02 13:50:46;;;;;;;0.30;0.30;;;;;;;;;;20673479;28;20776;-71
2022/09/02 14:00:48;;;;;;;0.75;0.40;;;;;;;;;;20673102;28;20227;-72
2022/09/02 14:10:53;;;;;;;1.23;0.30;;;26.30;79.90;;;;;;20639294;28;20242;-72
2022/09/02 14:20:59;;;;;;;0.30;0.20;;;26.40;60.10;;;;;;20671582;28;20276;-72
2022/09/02 14:31:06;;;;;;;0.90;0.40;;;26.20;65.70;;;;;;20671116;28;20206;-72
2022/09/02 14:41:32;;;;;;;0.88;0.40;;;26.40;78.40;;;;;;20669571;28;20215;-71
2022/09/02 14:51:38;;;;;;;0.50;0.30;;;;;;;;;;20669520;28;20590;-71
2022/09/02 15:01:49;;;;;;;3.72;0.52;;;26.40;71.50;;;;;;20635286;28;20226;-71
2022/09/02 15:11:53;;;;;;;0.40;0.30;;;;;;;;;;20668027;28;20210;-72
2022/09/02 15:21:54;;;;;;;2.50;0.73;;;;;;;;;;20666470;28;20227;-72
2022/09/02 15:31:58;;;;;;;0.80;0.50;;;;;;;;;;20633166;28;20221;-72
2022/09/02 15:42:00;;;;;;;0.63;0.40;;;;;;;;;;20648386;28;20245;-70
2022/09/02 15:52:02;;;;;;;0.32;0.28;;;;;;;;;;20646830;28;20211;-70
2022/09/02 16:02:03;;;;;;;0.20;0.20;;;;;;;;;;20630527;28;20778;-71
2022/09/02 16:12:05;;;;;;;0.55;0.30;;;;;;;;;;20663624;28;20214;-70
2022/09/02 16:22:07;;;;;;;1.58;0.30;;;;;;;;;;20662583;28;20275;-70
2022/09/02 16:32:08;;;;;;;0.70;0.40;;;;;;;;;;20661759;28;20270;-70
2022/09/02 16:42:10;;;;;;;2.20;0.40;;;;;;;;;;20661336;28;20218;-70
2022/09/02 16:52:12;;;;;;;1.30;0.40;;;;;;;;;;20660429;28;20236;-71
2022/09/02 17:02:13;;;;;;;2.10;0.30;;;;;;;;;;20659037;28;20699;-70
2022/09/02 17:12:15;;;;;;;0.30;0.30;;;;;;;;;;20659638;28;20259;-71
2022/09/02 17:22:17;;;;;;;0.25;0.25;;;;;;;;;;20658868;28;20591;-70
2022/09/02 17:32:18;;;;;;;0.60;0.30;;;24.60;73.00;;;;;;20658721;28;20677;-71
2022/09/02 17:42:20;;;;;;;1.58;0.40;;;;;;;;;;20640569;28;20223;-71
2022/09/02 17:52:23;;;;;;;0.60;0.30;;;;;;;;;;20657453;28;20213;-71
2022/09/02 18:02:43;;;;;;;0.70;0.40;;;24.20;69.40;;;;;;20657130;28;20345;-72
2022/09/02 18:12:45;;;;;;;0.70;0.40;;;;;;;;;;20662648;28;20562;-72
2022/09/02 18:23:23;;;;;;;1.08;0.38;;;24.00;82.10;;;;;;20705583;23;20616;-75
2022/09/02 18:33:25;;;;;;;2.75;0.50;;;;;;;;;;20714083;28;20206;-74
2022/09/02 18:43:46;;;;;;;5.00;0.63;;;;;;;;;;20699828;28;20296;-73
2022/09/02 18:53:51;;;;;;;1.05;0.50;;;;;;;;;;20702122;28;20275;-73
2022/09/02 19:03:52;;;;;;;0.77;0.60;;;;;;;;;;20715425;28;20263;-73
2022/09/02 19:14:25;;;;;;;1.10;0.40;;;23.40;79.20;;;;;;20693781;28;20248;-75
2022/09/02 19:24:31;;;;;;;0.70;0.40;;;;;;;;;;20694771;28;20253;-74
2022/09/02 19:34:35;;;;;;;0.68;0.30;;;;;;;;;;20709987;28;20217;-73
2022/09/02 19:44:38;;;;;;;0.75;0.30;;;;;;;;;;20710731;28;20237;-75
2022/09/02 19:54:41;;;;;;;3.30;0.50;;;;;;;;;;20709698;28;20238;-73
2022/09/02 20:04:46;;;;;;;2.40;0.52;;;;;;;;;;20706102;28;20276;-73
2022/09/02 20:14:52;;;;;;;0.98;0.50;;;;;;;;;;20690752;28;20216;-74
2022/09/02 20:24:57;;;;;;;1.65;0.55;;;;;;;;;;20705170;28;20240;-75
2022/09/02 20:34:58;;;;;;;0.98;0.35;;;;;;;;;;20685441;28;20216;-74
2022/09/02 20:45:05;;;;;;;1.45;0.55;;;;;;;;;;20718858;28;20290;-75
2022/09/02 20:55:34;;;;;;;0.20;0.20;;;;;;;;;;20688977;28;20212;-74
2022/09/02 21:05:39;;;;;;;0.45;0.30;;;;;;;;;;20696275;28;20284;-74
2022/09/02 21:15:55;;;;;;;2.13;0.30;;;;;;;;;;20705076;28;20221;-73
2022/09/02 21:26:03;;;;;;;0.50;0.30;;;22.30;90.20;;;;;;20682072;28;20227;-74
2022/09/02 21:36:05;;;;;;;1.05;0.50;;;;;;;;;;20648415;28;20218;-74
2022/09/02 21:46:08;;;;;;;0.50;0.30;;;;;;;;;;20659101;28;20219;-73
2022/09/02 21:56:37;;;;;;;0.60;0.40;;;21.90;90.50;;;;;;20688026;28;20618;-73
2022/09/02 22:06:42;;;;;;;0.50;0.40;;;;;;;;;;20699871;28;20218;-73
2022/09/02 22:16:52;;;;;;;2.88;0.50;;;;;;;;;;20718056;28;20280;-72
2022/09/02 22:26:58;;;;;;;1.48;0.95;;;;;;;;;;20692635;28;20566;-73
2022/09/02 22:37:06;;;;;;;1.73;0.40;;;;;;;;;;20724951;28;20222;-73
2022/09/02 22:57:28;;;;;;;2.65;0.65;;;;;;;;;;20711513;28;20217;-73
2022/09/02 23:07:31;;;;;;;1.20;0.43;;;;;;;;;;20737950;28;20289;-73
2022/09/02 23:18:02;;;;;;;0.90;0.50;;;;;;;;;;20706978;28;20563;-73
2022/09/02 23:28:14;;;;;;;1.58;0.50;;;;;;;;;;20695369;28;20304;-73
2022/09/02 23:38:34;;;;;;;0.97;0.40;;;;;;;;;;20707953;28;20252;-73
2022/09/02 23:49:04;;;;;;;2.47;0.80;;;21.50;88.20;;;;;;20708637;28;20227;-73
2022/09/02 23:59:12;;;;;;;1.03;0.30;;;;;;;;;;20698702;28;20261;-74
